Time;durP1;ratioP1;P1;durP2;ratioP2;P2;SDS_P1;SDS_P2;PMS_P1;PMS_P2;Temp;Humidity;BMP_temperature;BMP_pressure;BME280_temperature;BME280_humidity;BME280_pressure;Samples;Min_cycle;Max_cycle;Signal;HPM_P1;HPM_P2
2021/10/29 00:01:13;;;;;;;16.55;10.77;;;7.60;99.90;;;;;;5053187;28;20020;-36
2021/10/29 00:03:38;;;;;;;21.30;11.95;;;7.50;99.90;;;;;;5052043;28;20100;-36
2021/10/29 00:06:04;;;;;;;19.38;11.32;;;7.50;99.90;;;;;;5053076;28;20033;-36
2021/10/29 00:08:31;;;;;;;19.42;10.65;;;7.40;99.90;;;;;;5053187;28;20090;-36
2021/10/29 00:10:56;;;;;;;17.02;10.98;;;7.40;99.90;;;;;;5052828;28;20029;-36
2021/10/29 00:13:22;;;;;;;17.35;10.20;;;7.30;99.90;;;;;;5052803;28;20040;-36
2021/10/29 00:15:47;;;;;;;18.10;12.00;;;7.30;99.90;;;;;;5052717;28;20037;-36
2021/10/29 00:18:13;;;;;;;19.25;11.38;;;7.20;99.90;;;;;;5051965;28;20100;-35
2021/10/29 00:20:38;;;;;;;21.30;11.75;;;7.20;99.90;;;;;;5052681;28;20021;-36
2021/10/29 00:23:04;;;;;;;18.42;12.25;;;7.10;99.90;;;;;;5052870;28;20405;-36
2021/10/29 00:25:30;;;;;;;18.48;12.25;;;7.10;99.90;;;;;;5052691;28;20487;-35
2021/10/29 00:27:56;;;;;;;19.90;12.80;;;7.10;99.90;;;;;;5052580;28;20116;-36
2021/10/29 00:30:21;;;;;;;19.83;12.27;;;7.10;99.90;;;;;;5052558;28;20116;-36
2021/10/29 00:32:47;;;;;;;24.52;14.88;;;7.10;99.90;;;;;;5052325;28;20053;-36
2021/10/29 00:35:13;;;;;;;21.52;12.02;;;7.00;99.90;;;;;;5051699;28;20025;-36
2021/10/29 00:37:40;;;;;;;23.67;13.43;;;7.00;99.90;;;;;;5052562;28;20021;-36
2021/10/29 00:40:08;;;;;;;21.00;12.82;;;7.00;99.90;;;;;;5052465;28;20045;-36
2021/10/29 00:42:34;;;;;;;25.88;15.45;;;7.00;99.90;;;;;;5052522;28;20025;-35
2021/10/29 00:45:00;;;;;;;19.98;12.88;;;7.00;99.90;;;;;;5052334;28;20027;-35
2021/10/29 00:47:25;;;;;;;23.42;14.50;;;6.90;99.90;;;;;;5052492;28;20108;-36
2021/10/29 00:49:51;;;;;;;21.75;14.38;;;6.90;99.90;;;;;;5051374;28;20043;-36
2021/10/29 00:52:16;;;;;;;24.95;15.25;;;7.00;99.90;;;;;;5052416;28;20117;-36
2021/10/29 00:54:42;;;;;;;25.92;16.08;;;7.00;99.90;;;;;;5052239;28;20036;-36
2021/10/29 00:57:08;;;;;;;23.63;14.05;;;7.00;99.90;;;;;;5052433;28;20029;-36
2021/10/29 00:59:33;;;;;;;21.73;12.48;;;7.00;99.90;;;;;;5052395;28;20076;-35
2021/10/29 01:01:59;;;;;;;27.10;16.45;;;7.00;99.90;;;;;;5052447;28;20066;-36
2021/10/29 01:04:25;;;;;;;25.00;16.60;;;6.90;99.90;;;;;;5051518;28;20021;-36
2021/10/29 01:06:51;;;;;;;25.55;16.05;;;7.00;99.90;;;;;;5052299;28;20028;-36
2021/10/29 01:09:16;;;;;;;25.60;15.65;;;7.00;99.90;;;;;;5052193;28;20017;-36
2021/10/29 01:11:43;;;;;;;21.45;14.20;;;7.00;99.90;;;;;;5052050;28;20021;-36
2021/10/29 01:14:08;;;;;;;22.83;14.98;;;6.90;99.90;;;;;;5052354;28;20033;-36
2021/10/29 01:16:34;;;;;;;30.48;15.13;;;6.90;99.90;;;;;;5052250;28;20583;-36
2021/10/29 01:19:00;;;;;;;26.25;15.75;;;6.90;99.90;;;;;;5051375;28;20036;-36
2021/10/29 01:21:25;;;;;;;26.00;17.08;;;6.80;99.90;;;;;;5052250;28;20025;-35
2021/10/29 01:23:51;;;;;;;29.23;16.38;;;6.80;99.90;;;;;;5052023;28;20029;-35
2021/10/29 01:26:17;;;;;;;23.63;14.23;;;6.80;99.90;;;;;;5052099;28;20029;-36
2021/10/29 01:28:45;;;;;;;25.88;14.45;;;6.80;99.90;;;;;;5052092;28;20502;-36
2021/10/29 01:31:11;;;;;;;26.40;14.70;;;6.80;99.90;;;;;;5052070;28;20107;-36
2021/10/29 01:33:37;;;;;;;28.10;16.50;;;6.80;99.90;;;;;;5051159;28;20426;-36
2021/10/29 01:36:03;;;;;;;26.00;15.57;;;6.70;99.90;;;;;;5052144;28;20017;-36
2021/10/29 01:38:37;;;;;;;24.38;14.45;;;6.70;99.90;;;;;;5051983;28;20017;-36
2021/10/29 01:41:04;;;;;;;27.83;15.95;;;6.60;99.90;;;;;;5051872;28;20017;-36
2021/10/29 01:43:30;;;;;;;23.13;15.55;;;6.60;99.90;;;;;;5051909;28;20035;-35
2021/10/29 01:45:56;;;;;;;25.10;14.48;;;6.50;99.90;;;;;;5051947;28;20025;-36
2021/10/29 01:48:25;;;;;;;28.23;13.75;;;6.50;99.90;;;;;;5049800;28;20029;-36
2021/10/29 01:50:51;;;;;;;24.58;14.63;;;6.50;99.90;;;;;;5051865;28;20029;-36
2021/10/29 01:53:17;;;;;;;25.00;14.77;;;6.40;99.90;;;;;;5051728;28;20384;-35
2021/10/29 01:55:42;;;;;;;33.33;17.63;;;6.40;99.90;;;;;;5052316;28;20025;-35
2021/10/29 01:58:08;;;;;;;24.80;14.95;;;6.40;99.90;;;;;;5055393;28;20426;-36
2021/10/29 02:00:33;;;;;;;23.25;13.57;;;6.30;99.90;;;;;;5055344;28;20484;-36
2021/10/29 02:02:59;;;;;;;24.27;13.82;;;6.30;99.90;;;;;;5054667;28;20033;-36
2021/10/29 02:05:24;;;;;;;22.27;13.40;;;6.20;99.90;;;;;;5055024;28;20049;-36
2021/10/29 02:07:50;;;;;;;32.42;18.67;;;6.20;99.90;;;;;;5055041;28;20115;-36
2021/10/29 02:10:16;;;;;;;33.88;20.50;;;6.20;99.90;;;;;;5055236;28;20025;-35
2021/10/29 02:12:41;;;;;;;29.27;16.92;;;6.20;99.90;;;;;;5055235;28;20028;-36
2021/10/29 02:15:07;;;;;;;31.88;18.25;;;6.20;99.90;;;;;;5055009;28;20040;-37
2021/10/29 02:17:33;;;;;;;34.05;17.45;;;6.20;99.90;;;;;;5055114;28;20161;-36
2021/10/29 02:19:59;;;;;;;33.50;20.08;;;6.20;99.90;;;;;;5053923;28;20029;-35
2021/10/29 02:22:25;;;;;;;32.58;18.67;;;6.20;99.90;;;;;;5054861;28;20595;-35
2021/10/29 02:24:50;;;;;;;30.30;16.85;;;6.30;99.90;;;;;;5054797;28;20107;-37
2021/10/29 02:27:16;;;;;;;30.58;19.33;;;6.20;99.90;;;;;;5055013;28;20107;-36
2021/10/29 02:29:41;;;;;;;29.70;17.25;;;6.20;99.90;;;;;;5054775;28;20029;-36
2021/10/29 02:32:07;;;;;;;28.95;15.63;;;6.20;99.90;;;;;;5054615;28;20284;-35
2021/10/29 02:34:33;;;;;;;28.45;15.88;;;6.20;99.90;;;;;;5053871;28;20017;-35
2021/10/29 02:36:59;;;;;;;30.83;18.13;;;6.10;99.90;;;;;;5054437;28;20071;-36
2021/10/29 02:39:24;;;;;;;33.17;19.15;;;6.10;99.90;;;;;;5054682;28;20044;-36
2021/10/29 02:41:50;;;;;;;31.30;19.58;;;6.20;99.90;;;;;;5054591;28;20093;-36
2021/10/29 02:44:15;;;;;;;29.42;17.33;;;6.20;99.90;;;;;;5054881;28;20415;-35
2021/10/29 02:46:41;;;;;;;28.23;17.35;;;6.10;99.90;;;;;;5054527;28;20021;-37
2021/10/29 02:49:06;;;;;;;28.02;15.98;;;6.10;99.90;;;;;;5053388;28;20063;-36
2021/10/29 02:51:32;;;;;;;27.48;18.70;;;6.10;99.90;;;;;;5054453;28;20057;-35
2021/10/29 02:53:58;;;;;;;28.15;19.58;;;6.10;99.90;;;;;;5054173;28;20139;-36
2021/10/29 02:56:24;;;;;;;32.40;19.02;;;6.10;99.90;;;;;;5054448;28;20431;-36
2021/10/29 02:58:49;;;;;;;32.55;19.15;;;6.10;99.90;;;;;;5054252;28;20100;-36
2021/10/29 03:01:15;;;;;;;30.88;19.42;;;6.10;99.90;;;;;;5054257;28;20031;-35
2021/10/29 03:03:41;;;;;;;31.40;17.90;;;6.10;99.90;;;;;;5053321;28;20119;-35
2021/10/29 03:06:06;;;;;;;32.95;20.13;;;6.10;99.90;;;;;;5053983;28;20107;-36
2021/10/29 03:08:32;;;;;;;29.52;19.02;;;6.10;99.90;;;;;;5054026;28;20040;-36
2021/10/29 03:10:57;;;;;;;31.40;19.17;;;6.10;99.90;;;;;;5054020;28;20235;-36
2021/10/29 03:13:24;;;;;;;33.95;20.65;;;6.10;99.90;;;;;;5053896;28;20064;-36
2021/10/29 03:15:50;;;;;;;32.97;20.00;;;6.10;99.90;;;;;;5053998;28;20108;-37
2021/10/29 03:18:17;;;;;;;33.15;20.10;;;6.10;99.90;;;;;;5053014;28;20457;-35
2021/10/29 03:20:44;;;;;;;33.75;21.27;;;6.20;99.90;;;;;;5053869;28;20025;-36
2021/10/29 03:23:09;;;;;;;35.00;21.10;;;6.20;99.90;;;;;;5053732;28;20029;-36
2021/10/29 03:25:35;;;;;;;37.80;21.58;;;6.20;99.90;;;;;;5053774;28;20062;-36
2021/10/29 03:28:01;;;;;;;34.78;20.90;;;6.20;99.90;;;;;;5053634;28;20487;-36
2021/10/29 03:30:27;;;;;;;34.25;20.00;;;6.10;99.90;;;;;;5053684;28;20029;-36
2021/10/29 03:32:54;;;;;;;28.75;18.00;;;6.10;99.90;;;;;;5053330;28;20052;-36
2021/10/29 03:35:20;;;;;;;32.83;20.10;;;6.10;99.90;;;;;;5052812;28;20066;-35
2021/10/29 03:42:55;;;;;;;35.35;19.45;;;6.10;99.90;;;;;;5053448;28;20029;-35
2021/10/29 03:45:21;;;;;;;35.65;21.33;;;6.00;99.90;;;;;;5053416;28;20380;-36
2021/10/29 03:47:52;;;;;;;33.72;19.13;;;6.00;99.90;;;;;;5053176;28;20039;-36
2021/10/29 03:50:24;;;;;;;30.65;21.20;;;6.00;99.90;;;;;;5052411;28;20025;-36
2021/10/29 03:53:24;;;;;;;36.08;21.48;;;6.00;99.90;;;;;;5053154;28;20027;-36
2021/10/29 03:55:41;;;;;;;32.85;18.77;;;6.00;99.90;;;;;;5053004;28;20028;-36
2021/10/29 03:58:07;;;;;;;39.92;23.25;;;5.90;99.90;;;;;;5053117;28;20023;-36
2021/10/29 04:00:34;;;;;;;38.05;21.15;;;6.00;99.90;;;;;;5053032;28;20029;-36
2021/10/29 04:03:03;;;;;;;30.90;19.38;;;5.90;99.90;;;;;;5052044;28;20476;-36
2021/10/29 04:05:30;;;;;;;37.17;23.27;;;5.90;99.90;;;;;;5053100;28;20032;-37
2021/10/29 04:07:56;;;;;;;38.47;21.35;;;5.90;99.90;;;;;;5062014;28;20086;-36
2021/10/29 04:10:27;;;;;;;35.38;20.77;;;5.90;99.90;;;;;;5071379;28;20021;-36
2021/10/29 04:12:57;;;;;;;32.55;20.88;;;5.80;99.90;;;;;;5071418;28;20048;-39
2021/10/29 04:15:24;;;;;;;34.75;19.20;;;5.80;99.90;;;;;;5071610;28;20048;-37
2021/10/29 04:17:50;;;;;;;33.53;22.10;;;5.80;99.90;;;;;;5071554;28;20376;-36
2021/10/29 04:20:16;;;;;;;42.75;24.23;;;5.80;99.90;;;;;;5070038;28;20047;-35
2021/10/29 04:22:42;;;;;;;35.15;21.52;;;5.80;99.90;;;;;;5071450;28;20035;-36
2021/10/29 04:25:08;;;;;;;39.92;23.25;;;5.70;99.90;;;;;;5070222;28;20025;-36
2021/10/29 04:27:36;;;;;;;32.50;20.48;;;5.70;99.90;;;;;;5070079;28;20020;-36
2021/10/29 04:30:10;;;;;;;35.63;20.80;;;5.70;99.90;;;;;;5071130;28;20032;-35
2021/10/29 04:32:35;;;;;;;34.83;19.83;;;5.70;99.90;;;;;;5070415;28;20119;-36
2021/10/29 04:35:01;;;;;;;38.35;22.48;;;5.60;99.90;;;;;;5070405;28;20143;-36
2021/10/29 04:37:26;;;;;;;33.85;19.52;;;5.60;99.90;;;;;;5071342;28;20025;-36
2021/10/29 04:39:52;;;;;;;37.55;21.77;;;5.60;99.90;;;;;;5071421;28;20025;-37
2021/10/29 04:42:18;;;;;;;32.80;20.40;;;5.50;99.90;;;;;;5066018;28;20032;-36
2021/10/29 04:44:43;;;;;;;42.88;24.90;;;5.50;99.90;;;;;;5052196;28;20021;-35
2021/10/29 04:47:09;;;;;;;31.13;20.00;;;5.50;99.90;;;;;;5071017;28;20154;-35
2021/10/29 04:49:34;;;;;;;36.92;19.42;;;5.40;99.90;;;;;;5070214;28;20110;-36
2021/10/29 04:52:00;;;;;;;33.17;18.48;;;5.40;99.90;;;;;;5070978;28;20497;-35
2021/10/29 04:54:26;;;;;;;30.30;18.33;;;5.30;99.90;;;;;;5072348;28;20025;-35
2021/10/29 04:56:51;;;;;;;38.05;23.27;;;5.30;99.90;;;;;;5072334;28;20120;-36
2021/10/29 04:59:18;;;;;;;32.35;19.08;;;5.30;99.90;;;;;;5072352;28;20039;-35
2021/10/29 05:01:46;;;;;;;35.15;20.17;;;5.30;99.90;;;;;;5072483;28;20029;-35
2021/10/29 05:04:12;;;;;;;26.95;17.65;;;5.20;99.90;;;;;;5071432;28;20376;-35
2021/10/29 05:06:37;;;;;;;34.25;17.90;;;5.20;99.90;;;;;;5072321;28;20502;-35
2021/10/29 05:09:03;;;;;;;31.25;17.52;;;5.10;99.90;;;;;;5072164;28;20029;-35
2021/10/29 05:11:28;;;;;;;30.10;18.05;;;5.10;99.90;;;;;;5072086;28;20029;-35
2021/10/29 05:13:54;;;;;;;28.23;17.83;;;5.00;99.90;;;;;;5072163;28;20091;-35
2021/10/29 05:16:19;;;;;;;35.38;20.20;;;5.00;99.90;;;;;;5072122;28;20410;-35
2021/10/29 05:18:45;;;;;;;32.50;19.13;;;4.90;99.90;;;;;;5071362;28;20028;-35
2021/10/29 05:21:10;;;;;;;30.77;17.45;;;5.00;99.90;;;;;;5072165;28;20067;-35
2021/10/29 05:23:36;;;;;;;35.38;21.85;;;4.90;99.90;;;;;;5072016;28;20468;-35
2021/10/29 05:26:02;;;;;;;39.97;22.48;;;4.90;99.90;;;;;;5072058;28;20061;-36
2021/10/29 05:28:27;;;;;;;31.52;18.83;;;4.90;99.90;;;;;;5072046;28;20107;-36
2021/10/29 05:30:53;;;;;;;34.80;18.45;;;4.80;99.90;;;;;;5072862;28;20048;-35
2021/10/29 05:33:18;;;;;;;38.67;20.20;;;4.80;99.90;;;;;;5074825;28;20043;-35
2021/10/29 05:35:44;;;;;;;36.88;19.02;;;4.80;99.90;;;;;;5075823;28;20096;-35
2021/10/29 05:38:09;;;;;;;31.00;17.90;;;4.80;99.90;;;;;;5075608;28;20021;-36
2021/10/29 05:40:36;;;;;;;32.25;19.40;;;4.70;99.90;;;;;;5075691;28;20033;-36
2021/10/29 05:43:02;;;;;;;33.88;17.60;;;4.70;99.90;;;;;;5075702;28;20032;-35
2021/10/29 05:45:27;;;;;;;38.45;21.67;;;4.70;99.90;;;;;;5075611;28;20051;-35
2021/10/29 05:47:55;;;;;;;36.28;20.77;;;4.60;99.90;;;;;;5075245;28;20028;-36
2021/10/29 05:50:20;;;;;;;35.35;19.50;;;4.60;99.90;;;;;;5075428;28;20399;-36
2021/10/29 05:52:46;;;;;;;34.55;20.52;;;4.60;99.90;;;;;;5075483;28;20025;-35
2021/10/29 05:57:38;;;;;;;33.78;18.75;;;4.50;99.90;;;;;;5075441;28;20132;-36
2021/10/29 06:00:05;;;;;;;30.17;16.55;;;4.50;99.90;;;;;;5075434;28;20503;-35
2021/10/29 06:02:30;;;;;;;36.20;19.08;;;4.40;99.90;;;;;;5075362;28;20048;-35
2021/10/29 06:04:56;;;;;;;36.53;19.60;;;4.40;99.90;;;;;;5074395;28;20066;-35
2021/10/29 06:07:21;;;;;;;35.95;19.67;;;4.30;99.90;;;;;;5075198;28;20048;-35
2021/10/29 06:09:47;;;;;;;38.17;20.45;;;4.30;99.90;;;;;;5075105;28;20452;-35
2021/10/29 06:12:12;;;;;;;33.95;18.17;;;4.30;99.90;;;;;;5075010;28;20070;-35
2021/10/29 06:14:39;;;;;;;32.90;19.08;;;4.30;99.90;;;;;;5075216;28;20028;-36
2021/10/29 06:17:07;;;;;;;32.00;17.67;;;4.30;99.90;;;;;;5075101;28;20495;-36
2021/10/29 06:19:33;;;;;;;36.72;19.98;;;4.30;99.90;;;;;;5074068;28;20456;-35
2021/10/29 06:24:28;;;;;;;37.05;19.42;;;4.30;99.90;;;;;;5074846;28;20023;-35
2021/10/29 06:27:00;;;;;;;32.90;18.50;;;4.30;99.90;;;;;;5074935;28;20480;-35
2021/10/29 06:29:26;;;;;;;32.35;18.67;;;4.30;99.90;;;;;;5074707;28;20032;-35
2021/10/29 06:31:52;;;;;;;30.05;16.23;;;4.30;99.90;;;;;;5074716;28;20048;-35
2021/10/29 06:34:17;;;;;;;36.33;19.85;;;4.30;99.90;;;;;;5073824;28;20028;-35
2021/10/29 06:36:45;;;;;;;38.25;20.85;;;4.40;99.90;;;;;;5074851;28;20025;-35
2021/10/29 06:39:11;;;;;;;30.77;17.30;;;4.40;99.90;;;;;;5074387;28;20029;-35
2021/10/29 06:41:36;;;;;;;35.10;19.05;;;4.50;99.90;;;;;;5074159;28;20020;-36
2021/10/29 06:44:10;;;;;;;41.58;20.92;;;4.50;99.90;;;;;;5074516;28;20324;-35
2021/10/29 06:49:21;;;;;;;34.63;18.30;;;4.60;99.90;;;;;;5073574;28;20573;-35
2021/10/29 06:59:13;;;;;;;34.70;19.30;;;4.90;99.90;;;;;;5074301;28;20039;-34
2021/10/29 07:39:58;;;;;;;36.13;19.33;;;5.50;99.90;;;;;;5072814;28;20456;-36
2021/10/29 07:40:44;;;;;;;39.97;21.30;;;6.70;99.90;;;;;;5073408;28;20352;-36
2021/10/29 07:43:14;;;;;;;32.47;19.00;;;6.90;99.90;;;;;;5073344;28;20028;-35
2021/10/29 07:45:42;;;;;;;24.30;16.65;;;7.20;99.90;;;;;;5073351;28;20055;-36
2021/10/29 07:48:09;;;;;;;30.92;20.00;;;7.70;99.90;;;;;;5072389;28;20033;-36
2021/10/29 07:50:35;;;;;;;25.00;15.77;;;8.30;99.90;;;;;;5073187;28;20012;-36
2021/10/29 07:53:01;;;;;;;22.88;14.82;;;8.70;99.90;;;;;;5072855;28;20107;-36
2021/10/29 07:55:28;;;;;;;24.70;16.58;;;9.20;99.90;;;;;;5072793;28;20413;-36
2021/10/29 07:58:04;;;;;;;19.33;13.60;;;9.60;99.90;;;;;;5073130;28;20479;-36
2021/10/29 08:00:32;;;;;;;21.13;14.40;;;10.10;99.90;;;;;;5072906;28;20460;-36
2021/10/29 08:03:00;;;;;;;20.08;15.07;;;10.50;99.90;;;;;;5072144;28;20032;-36
2021/10/29 08:05:26;;;;;;;24.15;16.35;;;10.80;99.90;;;;;;5072937;28;20044;-37
2021/10/29 08:07:52;;;;;;;30.13;19.45;;;11.00;99.90;;;;;;5073034;28;20055;-37
2021/10/29 08:10:18;;;;;;;25.70;18.40;;;11.10;99.90;;;;;;5072964;28;20024;-37
2021/10/29 08:12:43;;;;;;;20.10;15.07;;;11.20;99.90;;;;;;5072934;28;20029;-36
2021/10/29 08:15:10;;;;;;;22.58;16.15;;;11.40;99.90;;;;;;5072784;28;20342;-37
2021/10/29 08:17:36;;;;;;;23.25;15.80;;;11.60;99.90;;;;;;5072876;28;20109;-36
2021/10/29 08:20:06;;;;;;;21.80;17.63;;;11.70;99.90;;;;;;5071812;28;20056;-36
2021/10/29 08:22:33;;;;;;;27.27;18.20;;;11.80;99.90;;;;;;5072739;28;20387;-36
2021/10/29 08:24:59;;;;;;;19.85;15.18;;;11.80;99.90;;;;;;5072803;28;20020;-37
2021/10/29 08:27:25;;;;;;;22.60;16.50;;;12.00;99.90;;;;;;5072932;28;20016;-36
2021/10/29 08:29:51;;;;;;;22.27;16.08;;;12.10;99.90;;;;;;5072800;28;20047;-36
2021/10/29 08:32:17;;;;;;;27.95;15.55;;;12.20;99.90;;;;;;5072553;28;20152;-36
2021/10/29 08:34:43;;;;;;;25.00;16.52;;;12.40;99.90;;;;;;5071763;28;20028;-37
2021/10/29 08:37:09;;;;;;;17.13;13.25;;;12.40;99.90;;;;;;5071510;28;20108;-37
2021/10/29 08:39:37;;;;;;;20.98;15.45;;;12.60;99.90;;;;;;5072522;28;20047;-37
2021/10/29 08:42:03;;;;;;;18.73;13.52;;;12.70;99.90;;;;;;5072409;28;20475;-37
2021/10/29 08:44:29;;;;;;;21.40;14.90;;;12.90;99.90;;;;;;5072436;28;20058;-36
2021/10/29 08:47:00;;;;;;;25.08;17.15;;;12.90;99.90;;;;;;5072640;28;20020;-36
2021/10/29 08:49:27;;;;;;;23.77;16.30;;;12.90;99.90;;;;;;5071477;28;20502;-37
2021/10/29 08:51:52;;;;;;;24.88;17.52;;;12.90;99.90;;;;;;5072537;28;20107;-38
2021/10/29 08:54:20;;;;;;;18.05;14.35;;;13.00;99.90;;;;;;5072504;28;20514;-37
2021/10/29 08:56:46;;;;;;;27.13;17.27;;;13.00;99.90;;;;;;5072250;28;20472;-37
2021/10/29 08:59:16;;;;;;;24.27;16.40;;;13.00;99.90;;;;;;5072525;28;20033;-37
2021/10/29 09:01:59;;;;;;;27.33;17.85;;;13.00;91.70;;;;;;5072346;28;20035;-37
2021/10/29 09:04:42;;;;;;;21.42;16.05;;;12.90;92.40;;;;;;5071371;28;20032;-36
2021/10/29 09:10:26;;;;;;;;;;;12.90;94.20;;;;;;5076810;28;20102;-36
2021/10/29 09:33:00;;;;;;;29.40;18.30;;;12.50;92.80;;;;;;5075505;28;20055;-37
2021/10/29 09:35:29;;;;;;;20.67;12.98;;;12.50;92.10;;;;;;5075830;28;20021;-36
2021/10/29 09:38:07;;;;;;;28.20;16.42;;;12.60;93.40;;;;;;5075810;28;20530;-36
2021/10/29 09:40:39;;;;;;;20.92;16.42;;;12.60;90.70;;;;;;5075530;28;20024;-37
2021/10/29 09:43:19;;;;;;;26.63;17.63;;;12.60;91.50;;;;;;5075557;28;20559;-36
2021/10/29 09:46:07;;;;;;;21.67;16.45;;;12.50;90.90;;;;;;5075578;28;20024;-36
2021/10/29 09:48:47;;;;;;;27.55;16.27;;;12.50;89.00;;;;;;5074664;28;20023;-36
2021/10/29 09:51:16;;;;;;;21.73;16.02;;;12.40;91.50;;;;;;5075601;28;20095;-36
2021/10/29 09:56:20;;;;;;;23.00;16.20;;;12.50;92.00;;;;;;5075662;28;20027;-36
2021/10/29 09:58:54;;;;;;;25.70;17.92;;;12.50;91.80;;;;;;5075417;28;20052;-36
2021/10/29 10:01:22;;;;;;;24.92;17.02;;;12.50;90.60;;;;;;5075353;28;20020;-36
2021/10/29 10:03:50;;;;;;;25.75;17.98;;;12.50;90.70;;;;;;5074232;28;20115;-36
2021/10/29 10:06:18;;;;;;;26.48;18.58;;;12.40;91.10;;;;;;5075366;28;20075;-37
2021/10/29 10:08:44;;;;;;;27.48;16.58;;;12.40;91.60;;;;;;5075252;28;20028;-36
2021/10/29 10:11:11;;;;;;;21.75;15.57;;;12.30;91.30;;;;;;5075303;28;20028;-36
2021/10/29 10:13:38;;;;;;;24.00;16.40;;;12.40;91.90;;;;;;5075195;28;20059;-36
2021/10/29 10:16:05;;;;;;;23.67;16.98;;;12.40;92.10;;;;;;5074569;28;20104;-36
2021/10/29 10:18:31;;;;;;;25.70;17.67;;;12.40;91.90;;;;;;5073783;28;20067;-36
2021/10/29 10:20:59;;;;;;;28.00;17.98;;;12.40;90.40;;;;;;5075077;28;20036;-36
2021/10/29 10:23:31;;;;;;;26.55;17.00;;;12.30;91.00;;;;;;5074914;28;20024;-36
2021/10/29 10:29:08;;;;;;;23.50;17.10;;;12.30;91.30;;;;;;5075046;28;20031;-36
2021/10/29 10:48:02;;;;;;;24.65;16.33;;;12.30;91.30;;;;;;5073606;28;20617;-36
2021/10/29 10:50:36;;;;;;;21.55;14.60;;;12.30;91.70;;;;;;5074526;28;20044;-36
2021/10/29 10:53:08;;;;;;;18.67;12.90;;;12.40;92.10;;;;;;5074369;28;20471;-36
2021/10/29 11:04:35;;;;;;;16.00;11.40;;;12.60;92.80;;;;;;5073326;28;20480;-36
2021/10/29 11:07:27;;;;;;;27.05;18.25;;;12.70;92.70;;;;;;5074178;28;20036;-36
2021/10/29 11:10:08;;;;;;;21.55;15.07;;;12.70;91.00;;;;;;5072797;28;20052;-36
2021/10/29 11:12:40;;;;;;;24.88;16.45;;;12.70;90.20;;;;;;5073982;28;20024;-36
2021/10/29 11:15:08;;;;;;;19.98;13.95;;;12.70;90.10;;;;;;5073946;28;20020;-36
2021/10/29 11:18:00;;;;;;;21.83;14.27;;;12.70;90.80;;;;;;5074024;28;20563;-36
2021/10/29 11:20:41;;;;;;;21.33;14.70;;;12.80;90.80;;;;;;5074014;28;20108;-36
2021/10/29 11:23:29;;;;;;;22.92;15.35;;;12.90;90.60;;;;;;5073966;28;20025;-36
2021/10/29 11:26:07;;;;;;;22.90;14.70;;;12.90;87.80;;;;;;5073775;28;20083;-36
2021/10/29 11:28:34;;;;;;;24.45;13.82;;;12.80;90.30;;;;;;5073827;28;20028;-36
2021/10/29 11:31:01;;;;;;;20.33;14.57;;;12.90;90.60;;;;;;5073464;28;20044;-36
2021/10/29 11:33:28;;;;;;;21.52;15.13;;;12.80;88.80;;;;;;5071108;28;20028;-36
2021/10/29 11:36:00;;;;;;;22.50;15.00;;;12.80;89.30;;;;;;5073490;28;20031;-36
2021/10/29 11:38:26;;;;;;;20.77;13.60;;;12.80;88.70;;;;;;5073656;28;20286;-37
2021/10/29 11:40:53;;;;;;;20.42;13.60;;;12.70;90.30;;;;;;5073478;28;20067;-36
2021/10/29 11:43:23;;;;;;;19.50;13.00;;;12.80;91.10;;;;;;5073513;28;20082;-36
2021/10/29 11:45:49;;;;;;;19.92;13.18;;;12.80;91.00;;;;;;5073180;28;20020;-36
2021/10/29 11:48:15;;;;;;;17.20;13.75;;;12.80;90.70;;;;;;5072366;28;20028;-36
2021/10/29 11:50:41;;;;;;;19.45;13.60;;;12.90;91.20;;;;;;5073251;28;20028;-36
2021/10/29 11:53:10;;;;;;;19.88;13.00;;;13.00;90.80;;;;;;5073297;28;20487;-36
2021/10/29 11:55:42;;;;;;;18.35;13.18;;;13.00;91.00;;;;;;5073256;28;20095;-36
2021/10/29 12:01:27;;;;;;;18.17;13.05;;;13.00;90.60;;;;;;5073326;28;20070;-36
2021/10/29 12:09:22;;;;;;;24.02;15.20;;;13.00;90.30;;;;;;5073008;28;20032;-36
2021/10/29 12:12:17;;;;;;;20.20;13.82;;;13.00;89.10;;;;;;5072928;28;20032;-38
2021/10/29 12:14:46;;;;;;;21.23;15.48;;;13.00;89.90;;;;;;5072915;28;20487;-36
2021/10/29 12:17:22;;;;;;;20.98;14.02;;;13.00;90.60;;;;;;5072887;28;20117;-36
2021/10/29 12:19:52;;;;;;;20.85;13.68;;;13.00;91.00;;;;;;5071730;28;20052;-36
2021/10/29 12:25:14;;;;;;;21.08;15.68;;;13.10;89.30;;;;;;5073011;28;20031;-36
2021/10/29 12:27:48;;;;;;;18.23;13.38;;;13.10;89.50;;;;;;5072751;28;20021;-36
2021/10/29 12:31:14;;;;;;;22.02;14.45;;;13.20;88.00;;;;;;5072847;28;20025;-36
2021/10/29 12:39:12;;;;;;;19.42;12.85;;;13.20;87.40;;;;;;5072923;28;20129;-36
2021/10/29 13:01:27;;;;;;;20.15;13.65;;;13.50;82.30;;;;;;5065911;28;20104;-36
2021/10/29 13:04:10;;;;;;;15.85;11.85;;;13.50;82.80;;;;;;5050658;28;20025;-36
2021/10/29 13:06:46;;;;;;;18.58;11.63;;;13.50;83.40;;;;;;5061931;28;20028;-36
2021/10/29 13:09:19;;;;;;;17.55;12.77;;;13.60;85.20;;;;;;5070829;28;20013;-37
2021/10/29 13:12:05;;;;;;;19.15;13.77;;;13.60;81.70;;;;;;5050910;28;20032;-36
2021/10/29 13:14:35;;;;;;;17.80;11.77;;;13.60;80.60;;;;;;5050854;28;20025;-36
2021/10/29 13:17:05;;;;;;;14.25;11.35;;;13.60;82.60;;;;;;5053664;28;20024;-37
2021/10/29 13:20:26;;;;;;;15.35;11.63;;;13.70;83.40;;;;;;5058353;28;20271;-37
2021/10/29 13:25:23;;;;;;;16.83;10.77;;;13.70;84.80;;;;;;5050629;28;20345;-36
2021/10/29 13:28:27;;;;;;;21.58;13.48;;;13.70;84.30;;;;;;5050600;28;20017;-36
2021/10/29 13:36:28;;;;;;;17.27;12.52;;;13.70;80.90;;;;;;5050765;28;20059;-36
2021/10/29 14:03:58;;;;;;;19.05;13.27;;;13.60;84.20;;;;;;5053102;28;20172;-36
2021/10/29 14:28:46;;;;;;;17.35;11.52;;;13.30;86.80;;;;;;5074228;28;20032;-36
2021/10/29 14:31:34;;;;;;;16.25;11.65;;;13.30;86.40;;;;;;5074749;28;20068;-36
2021/10/29 14:34:11;;;;;;;20.95;15.38;;;13.30;87.20;;;;;;5073978;28;20070;-36
2021/10/29 14:36:48;;;;;;;34.17;20.95;;;13.20;87.70;;;;;;5074953;28;20099;-36
2021/10/29 14:39:21;;;;;;;21.38;14.20;;;13.20;87.70;;;;;;5073338;28;20032;-38
2021/10/29 14:41:58;;;;;;;25.95;14.60;;;13.20;86.80;;;;;;5074770;28;20024;-36
2021/10/29 14:44:35;;;;;;;18.80;13.32;;;13.20;87.50;;;;;;5074649;28;20024;-36
2021/10/29 14:47:15;;;;;;;17.98;13.23;;;13.10;88.20;;;;;;5074648;28;20103;-37
2021/10/29 14:49:58;;;;;;;19.08;13.43;;;13.10;88.90;;;;;;5073694;28;20051;-36
2021/10/29 14:52:52;;;;;;;16.33;11.50;;;13.00;89.30;;;;;;5074548;28;20024;-36
2021/10/29 15:03:44;;;;;;;13.88;9.27;;;12.80;91.00;;;;;;5072872;28;20486;-36
2021/10/29 15:17:25;;;;;;;15.48;9.02;;;12.30;93.60;;;;;;5074022;28;20070;-36
2021/10/29 15:25:48;;;;;;;16.55;10.20;;;12.10;96.90;;;;;;5074049;28;20092;-36
2021/10/29 15:41:09;;;;;;;19.10;11.25;;;11.40;99.90;;;;;;5073511;28;20046;-36
2021/10/29 15:42:24;;;;;;;17.10;12.07;;;11.30;99.90;;;;;;5073429;28;20099;-36
2021/10/29 15:44:43;;;;;;;16.13;11.18;;;11.10;99.90;;;;;;5073191;28;20044;-36
2021/10/29 15:47:11;;;;;;;15.95;11.48;;;11.00;99.90;;;;;;5073405;28;20064;-36
2021/10/29 15:49:45;;;;;;;15.43;10.63;;;10.80;99.90;;;;;;5072496;28;20020;-36
2021/10/29 15:52:16;;;;;;;20.05;12.48;;;10.70;99.90;;;;;;5073386;28;20024;-36
2021/10/29 15:55:00;;;;;;;16.30;10.93;;;10.50;99.90;;;;;;5072138;28;20025;-36
2021/10/29 15:57:28;;;;;;;24.35;13.55;;;10.40;99.90;;;;;;5073342;28;20025;-36
2021/10/29 16:00:06;;;;;;;20.30;13.88;;;10.20;99.90;;;;;;5073277;28;20021;-36
2021/10/29 16:02:46;;;;;;;22.55;13.75;;;10.10;99.90;;;;;;5072981;28;20473;-36
2021/10/29 16:18:52;;;;;;;21.25;12.75;;;9.50;99.90;;;;;;5071978;28;20133;-36
2021/10/29 16:21:18;;;;;;;21.90;14.02;;;9.30;99.90;;;;;;5072675;28;20113;-36
2021/10/29 16:23:43;;;;;;;21.13;13.70;;;9.30;99.90;;;;;;5072917;28;20020;-36
2021/10/29 16:26:13;;;;;;;17.95;11.68;;;9.10;99.90;;;;;;5072752;28;20025;-37
2021/10/29 16:28:40;;;;;;;22.05;12.70;;;9.10;99.90;;;;;;5072829;28;20025;-36
2021/10/29 16:31:06;;;;;;;17.58;11.65;;;8.90;99.90;;;;;;5072579;28;20048;-36
2021/10/29 16:33:37;;;;;;;17.17;11.27;;;8.90;99.90;;;;;;5071862;28;20052;-36
2021/10/29 16:36:05;;;;;;;24.52;13.88;;;8.80;99.90;;;;;;5072740;28;20044;-36
2021/10/29 16:38:32;;;;;;;32.17;17.85;;;8.70;99.90;;;;;;5072561;28;20111;-36
2021/10/29 16:40:59;;;;;;;27.40;17.60;;;8.60;99.90;;;;;;5072701;28;20028;-36
2021/10/29 16:43:25;;;;;;;25.10;15.98;;;8.60;99.90;;;;;;5072491;28;20086;-36
2021/10/29 16:45:53;;;;;;;32.35;20.33;;;8.50;99.90;;;;;;5072710;28;20471;-36
2021/10/29 16:48:20;;;;;;;23.90;15.32;;;8.40;99.90;;;;;;5071492;28;20032;-35
2021/10/29 16:50:47;;;;;;;36.88;20.95;;;8.40;99.90;;;;;;5072635;28;20021;-36
2021/10/29 16:53:13;;;;;;;31.10;19.17;;;8.30;99.90;;;;;;5072465;28;20090;-36
2021/10/29 16:55:42;;;;;;;25.40;16.58;;;8.20;99.90;;;;;;5072619;28;20029;-36